createdAt,value
2023-03-12T14:54:23.966Z,98492.06
2023-03-12T14:56:52.166Z,98500.66
2023-03-12T14:59:25.501Z,98493.16
2023-03-12T15:02:00.040Z,98483.53
2023-03-12T15:04:28.136Z,98488.72
2023-03-12T15:06:58.864Z,98480.81
2023-03-12T15:09:29.246Z,98486.84
2023-03-12T15:14:44.026Z,98481.16
2023-03-12T15:17:16.054Z,98478.69
2023-03-12T15:19:43.869Z,98477.09
2023-03-12T15:22:14.923Z,98486.34
2023-03-12T15:24:44.075Z,98486.38
2023-03-12T15:27:23.290Z,98485.66
2023-03-12T15:29:50.980Z,98491.38
2023-03-12T15:32:20.486Z,98493.16
2023-03-12T15:34:48.653Z,98482.03
2023-03-12T15:37:29.548Z,98487.88
2023-03-12T15:39:58.806Z,98477.44
2023-03-12T15:42:27.155Z,98479.91
2023-03-12T15:44:56.717Z,98477.88
2023-03-12T15:47:26.384Z,98475.91
2023-03-12T15:49:56.442Z,98464.59
2023-03-12T15:52:30.762Z,98470.72
2023-03-12T15:55:05.839Z,98465.78
2023-03-12T15:57:34.165Z,98476.06
2023-03-12T16:00:24.444Z,98477.88
2023-03-12T16:02:54.496Z,98487.22
2023-03-12T16:05:24.061Z,98493.50
2023-03-12T16:07:51.825Z,98486.63
2023-03-12T16:10:22.217Z,98487.66
2023-03-12T16:12:51.533Z,98474.72
2023-03-12T16:15:22.977Z,98472.84
2023-03-12T16:17:50.566Z,98467.75
2023-03-12T16:20:19.947Z,98469.44
2023-03-12T16:22:47.651Z,98469.19
2023-03-12T16:25:15.376Z,98472.34
2023-03-12T16:27:49.383Z,98481.44
2023-03-12T16:30:20.193Z,98486.72
2023-03-12T16:32:48.092Z,98493.50
2023-03-12T16:35:17.768Z,98492.91
2023-03-12T16:37:45.448Z,98500.47
2023-03-12T16:40:23.993Z,98497.75
2023-03-12T16:43:02.616Z,98498.88
2023-03-12T16:45:31.662Z,98508.13
2023-03-12T16:48:00.946Z,98512.38
2023-03-12T16:50:29.130Z,98510.19
2023-03-12T16:52:56.836Z,98517.06
2023-03-12T16:55:27.376Z,98510.19
2023-03-12T16:57:56.847Z,98520.13
2023-03-12T17:00:28.193Z,98522.59
2023-03-12T17:02:57.949Z,98519.88
2023-03-12T17:05:26.311Z,98527.84
2023-03-12T17:07:54.044Z,98533.88
2023-03-12T17:10:21.982Z,98541.78
2023-03-12T17:12:49.918Z,98550.75
2023-03-12T17:15:21.113Z,98551.16
2023-03-12T17:17:50.230Z,98545.63
2023-03-12T17:20:19.977Z,98554.97
2023-03-12T17:22:47.991Z,98548.00
2023-03-12T17:25:21.914Z,98550.53
2023-03-12T17:27:49.569Z,98558.94
2023-03-12T17:30:17.644Z,98559.25
2023-03-12T17:32:45.473Z,98556.69
2023-03-12T17:35:14.544Z,98560.50
2023-03-12T17:37:42.148Z,98567.69
2023-03-12T17:40:11.027Z,98563.28
2023-03-12T17:42:39.377Z,98571.09
2023-03-12T17:45:08.847Z,98564.38
2023-03-12T17:47:36.468Z,98566.69
2023-03-12T17:50:08.462Z,98570.25
2023-03-12T17:52:37.540Z,98578.47
2023-03-12T17:55:06.007Z,98587.91
2023-03-12T17:57:33.648Z,98587.91
2023-03-12T18:00:01.237Z,98590.16
2023-03-12T18:02:29.012Z,98589.09
2023-03-12T18:04:56.694Z,98587.00
2023-03-12T18:07:24.373Z,98590.84
2023-03-12T18:09:53.336Z,98589.22
2023-03-12T18:12:21.086Z,98584.81
2023-03-12T18:14:48.634Z,98580.88
2023-03-12T18:17:16.192Z,98569.47
2023-03-12T18:19:43.846Z,98574.19
2023-03-12T18:22:14.122Z,98575.34
2023-03-12T18:24:41.816Z,98578.75
2023-03-12T18:27:10.751Z,98577.13
2023-03-12T18:29:38.296Z,98581.63
2023-03-12T18:32:06.068Z,98585.66
2023-03-12T18:34:33.737Z,98583.84
2023-03-12T18:37:01.356Z,98582.66
2023-03-12T18:39:28.956Z,98593.75
2023-03-12T18:41:56.695Z,98589.00
2023-03-12T18:44:25.614Z,98592.84
2023-03-12T18:46:53.943Z,98591.78
2023-03-12T18:49:21.736Z,98596.19
2023-03-12T18:51:53.312Z,98594.91
2023-03-12T18:54:22.016Z,98603.03
2023-03-12T18:56:51.115Z,98590.78
2023-03-12T18:59:18.812Z,98593.84
2023-03-12T19:01:47.897Z,98595.63
2023-03-12T19:04:19.609Z,98605.78
2023-03-12T19:06:51.458Z,98594.56
2023-03-12T19:09:19.540Z,98604.22
2023-03-12T19:11:47.620Z,98593.72
2023-03-12T19:14:15.170Z,98597.97
2023-03-12T19:16:42.974Z,98596.19
2023-03-12T19:19:12.475Z,98594.56
2023-03-12T19:21:40.094Z,98603.94
2023-03-12T19:24:07.786Z,98602.31
2023-03-12T19:26:35.358Z,98603.44
2023-03-12T19:29:02.952Z,98597.81
2023-03-12T19:31:30.848Z,98608.34
2023-03-12T19:33:58.417Z,98601.09
2023-03-12T19:36:27.377Z,98600.25
2023-03-12T19:38:54.939Z,98603.94
2023-03-12T19:41:22.768Z,98599.69
2023-03-12T19:43:50.415Z,98603.88
2023-03-12T19:46:17.984Z,98614.25
2023-03-12T19:48:45.568Z,98603.72
2023-03-12T19:51:13.122Z,98600.94
2023-03-12T19:53:42.160Z,98602.50
2023-03-12T19:56:09.777Z,98600.03
2023-03-12T19:58:37.361Z,98599.16
2023-03-12T20:01:05.270Z,98590.44
2023-03-12T20:03:33.773Z,98583.53
2023-03-12T20:06:01.665Z,98593.22
2023-03-12T20:08:32.017Z,98595.31
2023-03-12T20:11:05.246Z,98591.50
2023-03-12T20:13:32.889Z,98595.91
2023-03-12T20:16:01.175Z,98589.34
2023-03-12T20:18:28.965Z,98590.50
2023-03-12T20:20:56.515Z,98592.22
2023-03-12T20:23:24.132Z,98578.56
2023-03-12T20:25:52.110Z,98587.66
2023-03-12T20:28:21.033Z,98578.22
2023-03-12T20:30:49.141Z,98567.22
2023-03-12T20:33:16.699Z,98572.31
2023-03-12T20:35:44.302Z,98575.25
2023-03-12T20:38:12.020Z,98569.84
2023-03-12T20:40:39.641Z,98576.09
2023-03-12T20:43:07.197Z,98577.94
2023-03-12T20:45:36.132Z,98577.94
2023-03-12T20:48:03.746Z,98580.56
2023-03-12T20:50:31.361Z,98571.75
2023-03-12T20:52:59.601Z,98565.88
2023-03-12T20:55:27.234Z,98558.06
2023-03-12T20:57:54.890Z,98556.84
2023-03-12T21:00:23.243Z,98559.13
2023-03-12T21:02:52.238Z,98553.50
2023-03-12T21:05:19.824Z,98554.94
2023-03-12T21:07:47.450Z,98554.66
2023-03-12T21:10:15.307Z,98551.50
2023-03-12T21:12:43.185Z,98551.78
2023-03-12T21:15:12.425Z,98551.50
2023-03-12T21:17:41.212Z,98544.97
2023-03-12T21:20:14.280Z,98544.13
2023-03-12T21:22:43.296Z,98550.34
2023-03-12T21:25:12.500Z,98542.16
2023-03-12T21:27:49.939Z,98544.84
2023-03-12T21:30:19.639Z,98546.56
2023-03-12T21:32:47.248Z,98545.00
2023-03-12T21:35:16.178Z,98529.88
2023-03-12T21:37:43.770Z,98538.63
2023-03-12T21:40:12.845Z,98527.19
2023-03-12T21:42:40.555Z,98532.50
2023-03-12T21:45:09.732Z,98521.56
2023-03-12T21:47:37.826Z,98527.03
2023-03-12T21:50:06.235Z,98533.06
2023-03-12T21:52:41.263Z,98527.63
2023-03-12T21:55:11.420Z,98516.88
2023-03-12T21:57:39.051Z,98512.94
2023-03-12T22:00:12.472Z,98518.84
2023-03-12T22:02:40.289Z,98510.38
2023-03-12T22:05:09.084Z,98501.72
2023-03-12T22:07:38.035Z,98498.50
2023-03-12T22:10:07.078Z,98506.63
2023-03-12T22:12:34.724Z,98500.97
2023-03-12T22:15:02.289Z,98489.47
2023-03-12T22:17:29.842Z,98490.13
2023-03-12T22:19:57.327Z,98491.75
2023-03-12T22:22:24.912Z,98491.03
2023-03-12T22:24:53.838Z,98492.69
2023-03-12T22:27:21.440Z,98488.41
2023-03-12T22:29:52.820Z,98491.19
2023-03-12T22:32:20.485Z,98477.69
2023-03-12T22:34:48.090Z,98470.16
2023-03-12T22:37:15.683Z,98474.72
2023-03-12T22:39:44.073Z,98463.47
2023-03-12T22:42:12.974Z,98467.13
2023-03-12T22:44:41.495Z,98466.06
2023-03-12T22:47:09.366Z,98460.38
2023-03-12T22:49:36.917Z,98458.09
2023-03-12T22:52:04.961Z,98458.69
2023-03-12T22:54:32.469Z,98472.09
2023-03-12T22:57:00.109Z,98464.94
2023-03-12T22:59:29.068Z,98465.56
2023-03-12T23:01:56.719Z,98455.34
2023-03-12T23:04:24.366Z,98459.75
2023-03-12T23:06:55.346Z,98453.13
2023-03-12T23:09:29.149Z,98444.22
2023-03-12T23:11:56.724Z,98440.84
2023-03-12T23:14:24.286Z,98429.16
2023-03-12T23:16:53.292Z,98434.63
2023-03-12T23:19:20.857Z,98429.31
2023-03-12T23:21:48.427Z,98412.75
2023-03-12T23:24:15.978Z,98423.06
2023-03-12T23:26:44.913Z,98413.47
2023-03-12T23:29:13.303Z,98414.94
2023-03-12T23:31:40.894Z,98417.44
2023-03-12T23:34:10.639Z,98412.88
2023-03-12T23:36:38.318Z,98408.94
2023-03-12T23:39:05.918Z,98398.91
2023-03-12T23:41:33.464Z,98401.31
2023-03-12T23:44:01.365Z,98398.06
2023-03-12T23:46:29.338Z,98388.31
2023-03-12T23:48:57.214Z,98390.78
2023-03-12T23:51:27.657Z,98385.63
2023-03-12T23:53:57.006Z,98381.81
2023-03-12T23:56:27.012Z,98381.75
2023-03-12T23:58:55.229Z,98373.78
